Flight Track Log - Related Links

Times and Time Zones

All times are in EDT time to prevent confusion due to time zone crossing. See the XOJ578 flight status page for this flight to view local times or setup timezone preferences in your user account.


Time Position Orientation Groundspeed Altitude Reporting Facility
EDT Latitude Longitude Course Direction KTS MPH feet Rate Location/Type
Wed 12:21:17 AM 33.8833 -116.5500 331° Northwest 193 222 6,100  Level Southern California TRACON
Wed 12:22:21 AM 33.9367 -116.5625 349° North 219 252 9,800 2,976 Climbing Los Angeles Center
Wed 12:23:22 AM 34.0175 -116.5419 12° North 292 336 12,300 2,976 Climbing Los Angeles Center
Wed 12:24:24 AM 34.1300 -116.5272 North 349 402 15,900 1,902 Climbing Los Angeles Center
Wed 12:25:25 AM 34.2150 -116.5647 340° North 379 436 16,200 146 Climbing Los Angeles Center
Wed 12:26:27 AM 34.2708 -116.6786 301° West 400 460 16,200 -98 Level Los Angeles Center
Wed 12:27:28 AM 34.3031 -116.8031 287° West 390 449 16,000 -98 Descending Los Angeles Center
Wed 12:28:29 AM 34.3422 -116.9469 288° West 377 434 16,000  Level Los Angeles Center
Wed 12:29:31 AM 34.3744 -117.0700 288° West 383 441 16,000  Level Los Angeles Center
Wed 12:30:32 AM 34.4069 -117.1936 288° West 385 443 16,000  Level Los Angeles Center
Wed 12:31:33 AM 34.4394 -117.3186 288° West 388 447 16,000  Level Los Angeles Center
Wed 12:32:35 AM 34.4725 -117.4472 287° West 398 458 16,000  Level Los Angeles Center
Wed 12:33:36 AM 34.5056 -117.5731 288° West 390 449 16,000  Level Los Angeles Center
Wed 12:34:37 AM 34.5378 -117.7014 287° West 396 456 16,000 -537 Level Los Angeles Center
Wed 12:35:50 AM 34.5711 -117.8264 288° West 390 449 14,800 -1,378 Descending Los Angeles Center
Wed 12:36:52 AM 34.6097 -117.9778 287° West 389 448 12,900 -1,659 Descending Los Angeles Center
Wed 12:37:53 AM 34.6050 -118.1019 267° West 376 433 11,400 -1,574 Descending Los Angeles Center
Wed 12:38:54 AM 34.5864 -118.2322 260° West 328 377 9,700 -1,475 Descending Los Angeles Center
Wed 12:39:55 AM 34.5717 -118.3278 259° West 294 338 8,400 -829 Descending Los Angeles Center
Wed 12:40:57 AM 34.5539 -118.4169 256° West 276 318 8,000 -197 Descending Los Angeles Center
Wed 12:41:57 AM 34.5375 -118.4847 254° West 267 307 8,000 -787 Level Los Angeles Center
Wed 12:42:59 AM 34.4622 -118.5314 207° Southwest 261 300 6,400 -1,561 Descending Los Angeles Center
Wed 12:44:00 AM 34.3933 -118.5128 167° South 251 289 4,800 -1,426 Descending Los Angeles Center
Wed 12:45:01 AM 34.3317 -118.5031 173° South 228 262 3,500 -1,220 Descending Los Angeles Center
Wed 12:46:03 AM 34.2808 -118.4975 175° South 195 224 2,300 -1,073 Descending Los Angeles Center
Wed 12:47:04 AM 34.2369 -118.4944 177° South 147 169 1,300 -541 Descending Los Angeles Center
Wed 12:48:05 AM 34.2022 -118.4900 174° South 140 161 1,200 -98 Descending Los Angeles Center
Wed 12:50:00 AM 34.2000 -118.4833 180° South  Level FlightAware Approximate

Login

Don't have an account? Register now (free) for customized features, flight alerts, and more!